Time;durP1;ratioP1;P1;durP2;ratioP2;P2;SDS_P1;SDS_P2;PMS_P1;PMS_P2;Temp;Humidity;BMP_temperature;BMP_pressure;BME280_temperature;BME280_humidity;BME280_pressure;Samples;Min_cycle;Max_cycle;Signal;HPM_P1;HPM_P2
2022/10/03 00:02:22;;;;;;;25.38;17.30;;;9.70;89.40;;;;;;5007702;28;20038;-77
2022/10/03 00:05:10;;;;;;;22.25;16.17;;;9.70;89.50;;;;;;4996096;28;20041;-76
2022/10/03 00:07:49;;;;;;;24.60;16.77;;;9.70;89.50;;;;;;5003256;28;20088;-76
2022/10/03 00:10:34;;;;;;;23.05;15.43;;;9.70;89.40;;;;;;5002137;28;20108;-77
2022/10/03 00:13:05;;;;;;;;;;;9.60;89.40;;;;;;5006268;28;20430;-77
2022/10/03 00:15:47;;;;;;;20.67;15.30;;;9.60;89.40;;;;;;5007673;28;19979;-75
2022/10/03 00:18:33;;;;;;;25.00;14.73;;;9.60;89.40;;;;;;5006645;28;20028;-76
2022/10/03 00:21:13;;;;;;;22.05;14.50;;;9.60;89.40;;;;;;5007355;28;20385;-76
2022/10/03 00:24:09;;;;;;;21.50;14.52;;;9.60;89.40;;;;;;5008749;28;20092;-76
2022/10/03 00:26:41;;;;;;;23.67;15.40;;;9.50;89.40;;;;;;5003393;28;20057;-76
2022/10/03 00:29:30;;;;;;;25.70;16.52;;;9.50;89.30;;;;;;5010408;28;20041;-75
2022/10/03 00:32:35;;;;;;;24.40;16.30;;;9.50;89.30;;;;;;5006232;28;20034;-76
2022/10/03 00:35:11;;;;;;;24.58;16.55;;;9.50;89.40;;;;;;4983826;28;20043;-76
2022/10/03 00:37:45;;;;;;;23.40;17.20;;;9.50;89.50;;;;;;5004707;28;20176;-76
2022/10/03 00:40:35;;;;;;;22.52;16.10;;;9.40;89.70;;;;;;5008812;28;20116;-76
2022/10/03 00:43:07;;;;;;;19.15;15.35;;;9.50;89.80;;;;;;5007437;28;20058;-76
2022/10/03 00:46:00;;;;;;;25.00;17.85;;;9.50;89.80;;;;;;5004893;28;20069;-76
2022/10/03 00:48:51;;;;;;;26.55;16.67;;;9.50;89.70;;;;;;5005732;28;20022;-76
2022/10/03 00:51:37;;;;;;;24.63;17.38;;;9.40;89.70;;;;;;5004071;28;20026;-76
2022/10/03 00:54:22;;;;;;;24.77;18.20;;;9.40;89.90;;;;;;5003944;28;20108;-77
2022/10/03 00:57:35;;;;;;;28.35;19.20;;;9.40;89.90;;;;;;5018783;28;20596;-77
2022/10/03 01:00:23;;;;;;;28.77;19.98;;;9.40;89.90;;;;;;4945457;28;20499;-76
2022/10/03 01:03:17;;;;;;;44.13;26.85;;;9.40;90.00;;;;;;5009277;28;20053;-76
2022/10/03 01:06:05;;;;;;;38.45;23.95;;;9.40;90.10;;;;;;5003835;28;20034;-75
2022/10/03 01:08:40;;;;;;;36.22;23.50;;;9.30;90.10;;;;;;5006722;28;20038;-75
2022/10/03 01:11:49;;;;;;;32.83;20.88;;;9.30;90.10;;;;;;5004991;28;20091;-77
2022/10/03 01:14:21;;;;;;;28.73;18.83;;;9.30;90.10;;;;;;5010527;28;20046;-77
2022/10/03 01:17:00;;;;;;;23.98;17.67;;;9.20;90.10;;;;;;5006464;28;20041;-76
2022/10/03 01:20:01;;;;;;;24.13;17.67;;;9.20;90.10;;;;;;5006050;28;20245;-75
2022/10/03 01:22:38;;;;;;;30.38;21.63;;;9.20;90.20;;;;;;5008853;28;20041;-74
2022/10/03 01:25:34;;;;;;;34.67;22.45;;;9.20;90.30;;;;;;5007622;28;20046;-76
2022/10/03 01:30:58;;;;;;;32.17;22.48;;;9.20;90.30;;;;;;5006862;28;20124;-75
2022/10/03 01:33:53;;;;;;;30.48;22.52;;;9.10;90.30;;;;;;5007113;28;20551;-77
2022/10/03 01:36:49;;;;;;;25.88;18.98;;;9.10;90.40;;;;;;5010699;28;20060;-75
2022/10/03 01:39:30;;;;;;;23.50;18.15;;;9.10;90.40;;;;;;4999282;28;20124;-74
2022/10/03 01:42:07;;;;;;;24.40;17.15;;;9.10;90.40;;;;;;5009471;28;20034;-75
2022/10/03 01:44:43;;;;;;;23.35;17.02;;;9.10;90.30;;;;;;5009997;28;20501;-75
2022/10/03 01:47:12;;;;;;;22.58;17.55;;;9.10;90.30;;;;;;5006835;28;20084;-75
2022/10/03 01:49:45;;;;;;;23.95;17.23;;;9.00;90.20;;;;;;5009801;28;21304;-75
2022/10/03 01:52:34;;;;;;;23.25;17.95;;;9.00;90.30;;;;;;5011427;28;20104;-75
2022/10/03 01:55:29;;;;;;;25.70;17.67;;;9.00;90.30;;;;;;5007961;28;20040;-74
2022/10/03 01:58:21;;;;;;;22.20;16.40;;;8.90;90.10;;;;;;5008211;28;20038;-78
2022/10/03 02:01:20;;;;;;;24.33;16.55;;;8.90;90.20;;;;;;5004348;28;20032;-76
2022/10/03 02:04:01;;;;;;;20.90;16.10;;;8.90;90.20;;;;;;4997222;28;20029;-76
2022/10/03 02:06:43;;;;;;;20.30;15.82;;;8.90;90.20;;;;;;5007859;28;20417;-76
2022/10/03 02:09:35;;;;;;;24.85;16.55;;;8.90;90.20;;;;;;5009295;28;20440;-76
2022/10/03 02:12:22;;;;;;;18.77;15.55;;;8.90;90.10;;;;;;5007849;28;20030;-75
2022/10/03 02:15:08;;;;;;;19.77;16.20;;;8.90;90.10;;;;;;5006027;28;20501;-75
2022/10/03 02:17:52;;;;;;;25.83;17.13;;;8.70;90.00;;;;;;5009263;28;20457;-75
2022/10/03 02:20:26;;;;;;;22.03;16.20;;;8.70;90.10;;;;;;5003203;28;20125;-74
2022/10/03 02:22:56;;;;;;;19.13;15.18;;;8.70;90.00;;;;;;5007812;28;20064;-76
2022/10/03 02:25:26;;;;;;;19.65;14.52;;;8.70;89.90;;;;;;5007483;28;20033;-75
2022/10/03 02:28:23;;;;;;;20.30;14.77;;;8.70;89.90;;;;;;5004900;28;20458;-75
2022/10/03 02:31:18;;;;;;;19.88;14.60;;;8.70;90.00;;;;;;5007089;28;20061;-75
2022/10/03 02:34:08;;;;;;;21.67;15.02;;;8.80;90.00;;;;;;5004467;28;20369;-74
2022/10/03 02:37:04;;;;;;;21.55;12.90;;;8.70;90.10;;;;;;5004009;28;20049;-73
2022/10/03 02:39:45;;;;;;;23.30;14.13;;;8.70;90.20;;;;;;5005541;28;20034;-74
2022/10/03 02:42:49;;;;;;;19.75;14.40;;;8.80;90.30;;;;;;5012924;28;20377;-77
2022/10/03 02:45:36;;;;;;;18.35;14.45;;;8.80;90.30;;;;;;5011722;28;20026;-77
2022/10/03 02:48:21;;;;;;;21.77;14.32;;;8.80;90.40;;;;;;5008433;28;20033;-78
2022/10/03 02:50:57;;;;;;;19.35;13.48;;;8.70;90.30;;;;;;5004446;28;20149;-76
2022/10/03 02:53:48;;;;;;;21.90;14.50;;;8.70;90.40;;;;;;5014704;28;20116;-76
2022/10/03 02:56:29;;;;;;;23.25;16.00;;;8.80;90.50;;;;;;5011478;28;20065;-76
2022/10/03 02:59:24;;;;;;;22.52;15.23;;;8.80;90.50;;;;;;5005437;28;20041;-77
2022/10/03 03:02:16;;;;;;;18.35;14.73;;;8.80;90.50;;;;;;5011498;28;20042;-76
2022/10/03 03:05:17;;;;;;;18.35;14.23;;;8.70;90.50;;;;;;5025511;28;20038;-75
2022/10/03 03:07:58;;;;;;;19.00;13.95;;;8.70;90.60;;;;;;5000205;28;20062;-75
2022/10/03 03:10:45;;;;;;;16.70;14.00;;;8.60;90.50;;;;;;5002388;28;20107;-76
2022/10/03 03:13:38;;;;;;;21.13;14.52;;;8.70;90.50;;;;;;5008887;28;20045;-76
2022/10/03 03:16:38;;;;;;;18.60;13.13;;;8.60;90.40;;;;;;5003873;28;20041;-77
2022/10/03 03:19:21;;;;;;;19.58;13.32;;;8.60;90.30;;;;;;5007988;28;20080;-75
2022/10/03 03:22:07;;;;;;;24.70;15.27;;;8.60;90.30;;;;;;5019530;28;20042;-76
2022/10/03 03:24:41;;;;;;;20.70;14.30;;;8.60;90.20;;;;;;5003898;28;20030;-75
2022/10/03 03:27:27;;;;;;;17.88;13.75;;;8.50;90.20;;;;;;5007823;28;20137;-75
2022/10/03 03:30:05;;;;;;;20.60;14.10;;;8.50;90.20;;;;;;5007157;28;20132;-76
2022/10/03 03:32:48;;;;;;;23.85;14.43;;;8.50;90.20;;;;;;5006370;28;20124;-76
2022/10/03 03:35:28;;;;;;;19.63;14.35;;;8.50;90.30;;;;;;5009880;28;20032;-75
2022/10/03 03:38:09;;;;;;;22.85;14.32;;;8.40;90.40;;;;;;5006557;28;20040;-76
2022/10/03 03:40:53;;;;;;;17.88;14.05;;;8.40;90.40;;;;;;5015449;28;20438;-75
2022/10/03 03:43:48;;;;;;;23.60;15.60;;;8.40;90.40;;;;;;5007486;28;20041;-76
2022/10/03 03:46:32;;;;;;;20.50;12.65;;;8.30;90.50;;;;;;4997627;28;20053;-76
2022/10/03 03:49:17;;;;;;;19.25;14.10;;;8.40;90.60;;;;;;5008556;28;20151;-78
2022/10/03 03:52:06;;;;;;;17.50;13.68;;;8.30;90.60;;;;;;5015035;28;20038;-76
2022/10/03 03:54:47;;;;;;;20.80;14.57;;;8.30;90.60;;;;;;5006591;28;20492;-75
2022/10/03 03:57:47;;;;;;;24.67;14.65;;;8.30;90.60;;;;;;5005466;28;20050;-75
2022/10/03 04:00:58;;;;;;;21.60;14.30;;;8.20;90.60;;;;;;5009349;28;20051;-75
2022/10/03 04:03:57;;;;;;;21.63;14.25;;;8.30;90.70;;;;;;4990941;28;20281;-74
2022/10/03 04:06:37;;;;;;;23.00;15.82;;;8.30;90.70;;;;;;4949509;28;20389;-75
2022/10/03 04:09:11;;;;;;;20.83;15.48;;;8.30;90.80;;;;;;5007571;28;20014;-74
2022/10/03 04:11:48;;;;;;;17.73;14.10;;;8.30;90.80;;;;;;5003271;28;20105;-75
2022/10/03 04:14:35;;;;;;;25.75;18.33;;;8.30;90.80;;;;;;5010204;28;20033;-76
2022/10/03 04:20:32;;;;;;;29.83;20.00;;;8.30;90.80;;;;;;5006674;28;20449;-77
2022/10/03 04:23:36;;;;;;;26.00;18.70;;;8.30;90.90;;;;;;5006572;28;20022;-76
2022/10/03 04:26:50;;;;;;;24.95;16.90;;;8.30;90.90;;;;;;4998662;28;20042;-75
2022/10/03 04:29:35;;;;;;;20.98;15.90;;;8.30;90.90;;;;;;5003368;28;20338;-76
2022/10/03 04:32:01;;;;;;;18.73;14.90;;;8.40;90.90;;;;;;5008920;28;20037;-78
2022/10/03 04:34:35;;;;;;;21.77;14.18;;;8.40;90.80;;;;;;5002009;28;20096;-74
2022/10/03 04:37:17;;;;;;;18.02;14.68;;;8.30;90.80;;;;;;5006751;28;20062;-75
2022/10/03 04:40:12;;;;;;;23.33;15.43;;;8.30;90.80;;;;;;5012163;28;20117;-75
2022/10/03 04:43:06;;;;;;;18.48;14.80;;;8.30;90.90;;;;;;5015187;28;20415;-75
2022/10/03 04:45:44;;;;;;;20.33;16.33;;;8.30;90.90;;;;;;5010614;28;20420;-75
2022/10/03 04:48:37;;;;;;;23.77;16.15;;;8.20;90.90;;;;;;5012463;28;20041;-75
2022/10/03 04:51:14;;;;;;;23.30;15.00;;;8.20;90.90;;;;;;5006018;28;20034;-76
2022/10/03 04:53:51;;;;;;;22.85;15.90;;;8.10;90.80;;;;;;5017421;28;20045;-75
2022/10/03 04:56:29;;;;;;;18.35;14.23;;;8.10;90.90;;;;;;5013593;28;20048;-75
2022/10/03 04:58:55;;;;;;;25.00;16.30;;;8.10;90.90;;;;;;5012210;28;20069;-75
2022/10/03 05:01:23;;;;;;;22.38;14.63;;;8.10;90.90;;;;;;5016871;28;20061;-77
2022/10/03 05:04:14;;;;;;;20.73;14.07;;;8.10;90.90;;;;;;5010023;28;20529;-76
2022/10/03 05:06:47;;;;;;;24.13;16.25;;;8.10;91.00;;;;;;5009150;28;20045;-76
2022/10/03 05:09:25;;;;;;;20.00;14.82;;;8.10;91.00;;;;;;5010262;28;20045;-76
2022/10/03 05:12:14;;;;;;;20.40;14.70;;;8.10;91.00;;;;;;5011031;28;20121;-74
2022/10/03 05:15:09;;;;;;;20.65;13.90;;;8.10;91.00;;;;;;4996654;28;20034;-74
2022/10/03 05:18:03;;;;;;;19.25;14.20;;;8.10;90.90;;;;;;4987541;28;20046;-73
2022/10/03 05:21:23;;;;;;;19.27;15.43;;;8.00;90.90;;;;;;5008038;28;20334;-74
2022/10/03 05:24:01;;;;;;;21.95;15.00;;;8.00;90.90;;;;;;4946357;28;20053;-74
2022/10/03 05:26:35;;;;;;;25.83;16.90;;;8.00;91.00;;;;;;4936262;29;20487;-76
2022/10/03 05:29:12;;;;;;;24.20;16.27;;;8.00;91.00;;;;;;4981614;28;20049;-76
2022/10/03 05:31:48;;;;;;;23.75;16.50;;;8.00;91.00;;;;;;5008110;28;20038;-76
2022/10/03 05:34:52;;;;;;;24.73;16.33;;;8.00;91.00;;;;;;4998736;28;20029;-76
2022/10/03 05:37:24;;;;;;;23.02;16.70;;;8.00;91.00;;;;;;4998413;28;20042;-78
2022/10/03 05:40:03;;;;;;;22.63;16.65;;;8.10;91.00;;;;;;5013753;28;20437;-76
2022/10/03 05:42:54;;;;;;;23.98;15.80;;;8.10;91.10;;;;;;5014826;28;20432;-75
2022/10/03 05:45:47;;;;;;;22.25;15.93;;;8.10;91.00;;;;;;5011110;28;20517;-74
2022/10/03 05:48:31;;;;;;;22.27;16.60;;;8.00;91.00;;;;;;5008222;28;20425;-75
2022/10/03 05:51:00;;;;;;;23.55;16.80;;;8.10;91.00;;;;;;5008069;28;20034;-73
2022/10/03 05:53:39;;;;;;;24.83;16.70;;;8.10;91.00;;;;;;5011884;28;20052;-72
2022/10/03 05:56:09;;;;;;;21.08;15.45;;;8.10;91.00;;;;;;5012039;28;20116;-77
2022/10/03 05:58:54;;;;;;;21.00;15.13;;;8.10;91.00;;;;;;5012218;28;20136;-76
2022/10/03 06:01:47;;;;;;;17.60;13.73;;;8.10;91.00;;;;;;5006625;28;20517;-76
2022/10/03 06:04:33;;;;;;;20.27;14.85;;;8.10;91.00;;;;;;5010029;28;20277;-75
2022/10/03 06:07:19;;;;;;;19.90;14.68;;;8.10;91.00;;;;;;5006390;28;20406;-75
2022/10/03 06:10:24;;;;;;;20.10;15.57;;;8.20;91.00;;;;;;5006878;28;20022;-76
2022/10/03 06:13:11;;;;;;;25.33;16.20;;;8.30;91.00;;;;;;5009830;28;20053;-74
2022/10/03 06:16:02;;;;;;;19.70;14.98;;;8.30;91.00;;;;;;5025087;28;20061;-76
2022/10/03 06:18:56;;;;;;;20.33;14.93;;;8.30;91.00;;;;;;5004180;28;20030;-77
2022/10/03 06:22:12;;;;;;;20.80;14.57;;;8.40;91.00;;;;;;5025761;28;20044;-75
2022/10/03 06:25:00;;;;;;;23.85;16.33;;;8.50;90.90;;;;;;5005285;28;20057;-76
2022/10/03 06:28:10;;;;;;;21.73;14.70;;;8.60;90.70;;;;;;5025524;28;20090;-78
2022/10/03 06:30:47;;;;;;;18.88;13.98;;;8.70;90.70;;;;;;5020716;28;20029;-78
2022/10/03 06:33:34;;;;;;;19.17;15.70;;;8.80;90.50;;;;;;5013988;28;20038;-77
2022/10/03 06:36:39;;;;;;;18.40;13.88;;;8.80;90.30;;;;;;5021430;28;20049;-76
2022/10/03 06:39:26;;;;;;;21.13;14.35;;;8.90;90.20;;;;;;5026740;28;20025;-76
2022/10/03 06:42:13;;;;;;;19.88;14.40;;;8.90;90.10;;;;;;5023764;28;20037;-76
2022/10/03 06:45:10;;;;;;;19.27;14.35;;;9.10;90.10;;;;;;5023385;28;20033;-76
2022/10/03 06:48:13;;;;;;;19.23;14.00;;;9.10;90.10;;;;;;4972997;28;20052;-78
2022/10/03 06:51:03;;;;;;;21.48;15.20;;;9.20;90.00;;;;;;5024356;28;20033;-76
2022/10/03 06:53:47;;;;;;;17.38;13.73;;;9.40;90.00;;;;;;5008243;28;20374;-75
2022/10/03 06:56:45;;;;;;;20.40;14.90;;;9.40;89.90;;;;;;5029234;28;20049;-75
2022/10/03 06:59:46;;;;;;;19.33;13.68;;;9.50;89.80;;;;;;5004081;28;20306;-75
2022/10/03 07:02:37;;;;;;;20.83;14.50;;;9.60;89.80;;;;;;5021140;28;20157;-79
2022/10/03 07:05:18;;;;;;;20.98;15.25;;;9.60;89.80;;;;;;5026376;28;20476;-80
2022/10/03 07:08:16;;;;;;;26.75;18.25;;;9.70;89.80;;;;;;5019692;28;20375;-80
2022/10/03 07:10:57;;;;;;;27.30;16.40;;;9.70;89.80;;;;;;5023098;28;20044;-79
2022/10/03 07:13:41;;;;;;;24.00;17.48;;;9.80;89.80;;;;;;5021039;28;20048;-80
2022/10/03 07:16:34;;;;;;;24.23;17.08;;;9.90;89.90;;;;;;5025341;28;20046;-78
2022/10/03 07:19:43;;;;;;;25.88;17.67;;;10.00;89.90;;;;;;5024949;28;20495;-80
2022/10/03 07:22:33;;;;;;;26.42;18.25;;;10.10;89.90;;;;;;5019364;28;20037;-81
2022/10/03 07:25:21;;;;;;;25.77;17.50;;;10.20;89.90;;;;;;5022647;28;20678;-83
2022/10/03 07:28:20;;;;;;;27.83;18.23;;;10.30;90.00;;;;;;5017926;28;20112;-83
2022/10/03 07:31:12;;;;;;;26.35;18.55;;;10.40;90.00;;;;;;5023606;28;20052;-84
2022/10/03 07:33:48;;;;;;;25.88;17.55;;;10.60;90.20;;;;;;5015947;28;20099;-80
2022/10/03 07:39:35;;;;;;;26.65;18.58;;;10.90;90.10;;;;;;5030418;28;20043;-81
2022/10/03 07:42:23;;;;;;;26.40;18.85;;;11.10;90.20;;;;;;5023628;28;20033;-81
2022/10/03 07:45:07;;;;;;;28.60;19.27;;;11.30;90.10;;;;;;5023059;28;20025;-81
2022/10/03 07:48:12;;;;;;;26.53;19.17;;;11.30;90.40;;;;;;5001010;28;20029;-82
2022/10/03 07:50:56;;;;;;;24.38;17.88;;;11.40;90.50;;;;;;5022983;28;20073;-77
2022/10/03 07:53:46;;;;;;;27.23;18.20;;;11.50;90.40;;;;;;5028567;28;20106;-74
2022/10/03 07:56:31;;;;;;;26.30;18.45;;;11.70;89.90;;;;;;5018534;28;20491;-74
2022/10/03 07:59:26;;;;;;;25.05;16.30;;;12.10;89.20;;;;;;5024030;28;20117;-75
2022/10/03 08:02:12;;;;;;;24.42;17.00;;;12.20;89.00;;;;;;5024935;28;20131;-75
2022/10/03 08:04:38;;;;;;;27.27;17.30;;;12.40;89.00;;;;;;4984999;28;20109;-74
2022/10/03 08:07:37;;;;;;;29.92;19.55;;;12.60;88.90;;;;;;5037279;28;20025;-75
2022/10/03 08:10:39;;;;;;;24.00;17.70;;;12.80;88.20;;;;;;4967707;28;20374;-74
2022/10/03 08:13:08;;;;;;;30.63;17.67;;;13.00;88.00;;;;;;5015030;28;20028;-75
2022/10/03 08:15:56;;;;;;;24.50;15.82;;;13.30;87.30;;;;;;5021123;28;20180;-74
2022/10/03 08:18:34;;;;;;;22.70;15.35;;;13.50;86.60;;;;;;5021035;28;20061;-73
2022/10/03 08:21:02;;;;;;;22.20;16.02;;;13.50;85.90;;;;;;5017745;28;20087;-73
2022/10/03 08:23:59;;;;;;;22.25;15.43;;;13.70;86.00;;;;;;5023214;28;21104;-73
2022/10/03 08:26:57;;;;;;;23.35;15.43;;;14.00;85.30;;;;;;5025789;28;20575;-73
2022/10/03 08:30:01;;;;;;;24.00;14.93;;;14.20;83.80;;;;;;5016582;28;20029;-73
2022/10/03 08:33:03;;;;;;;22.23;14.48;;;14.40;83.90;;;;;;5020739;28;20030;-74
2022/10/03 08:35:51;;;;;;;21.17;13.20;;;14.70;83.00;;;;;;5020307;28;20025;-74
2022/10/03 08:38:55;;;;;;;22.05;12.85;;;14.90;82.40;;;;;;5020759;28;20053;-74
2022/10/03 08:41:39;;;;;;;23.80;12.10;;;15.10;80.90;;;;;;5024156;28;20053;-74
2022/10/03 08:44:30;;;;;;;18.80;11.23;;;15.10;80.10;;;;;;5016998;28;20080;-73
2022/10/03 08:47:05;;;;;;;23.73;11.50;;;15.10;80.00;;;;;;5026405;28;20285;-74
2022/10/03 08:50:01;;;;;;;20.92;10.80;;;15.10;80.80;;;;;;5023120;28;20047;-74
2022/10/03 08:52:27;;;;;;;19.13;11.52;;;15.50;80.20;;;;;;5021418;28;20124;-74
2022/10/03 08:55:11;;;;;;;23.98;11.05;;;15.80;79.00;;;;;;5017974;28;20172;-74
2022/10/03 08:57:56;;;;;;;19.08;9.90;;;16.10;77.40;;;;;;5019924;28;20053;-75
2022/10/03 09:01:04;;;;;;;20.10;10.43;;;16.00;77.50;;;;;;5019615;28;20392;-74
2022/10/03 09:03:39;;;;;;;20.23;10.43;;;15.90;77.10;;;;;;5022609;28;20465;-74
2022/10/03 09:06:23;;;;;;;;;;;15.90;78.30;;;;;;5020052;28;20049;-73
2022/10/03 09:09:18;;;;;;;19.27;10.55;;;15.80;78.30;;;;;;5015651;28;19963;-74
2022/10/03 09:12:06;;;;;;;23.20;11.60;;;15.80;79.00;;;;;;5017553;28;20172;-75
2022/10/03 09:14:37;;;;;;;20.60;10.93;;;16.00;78.00;;;;;;5019298;28;20033;-75
2022/10/03 09:17:48;;;;;;;19.42;11.32;;;15.80;77.60;;;;;;5018861;28;20040;-74
2022/10/03 09:21:03;;;;;;;20.50;11.32;;;16.00;78.00;;;;;;4997102;28;20076;-75
2022/10/03 09:24:02;;;;;;;19.00;11.30;;;16.10;77.80;;;;;;4981597;28;20481;-74
2022/10/03 09:26:51;;;;;;;23.27;12.02;;;16.20;78.80;;;;;;5034637;28;20052;-75
2022/10/03 09:29:44;;;;;;;20.52;10.52;;;16.40;76.80;;;;;;5001090;28;20025;-74
2022/10/03 09:32:47;;;;;;;22.60;11.48;;;16.60;76.80;;;;;;5026744;28;20037;-75
2022/10/03 09:35:47;;;;;;;20.73;11.07;;;16.60;75.00;;;;;;5024713;28;20042;-75
2022/10/03 09:38:43;;;;;;;23.15;11.25;;;16.70;74.90;;;;;;5022651;28;20037;-75
2022/10/03 09:41:15;;;;;;;21.10;10.85;;;16.70;74.50;;;;;;5026277;28;20059;-74
2022/10/03 09:43:59;;;;;;;19.80;11.18;;;16.70;74.90;;;;;;5026121;28;20094;-75
2022/10/03 09:47:21;;;;;;;18.48;11.13;;;16.60;75.30;;;;;;5020465;28;20041;-73
2022/10/03 09:50:19;;;;;;;20.92;10.63;;;16.70;74.40;;;;;;5023097;28;20377;-76
2022/10/03 09:53:17;;;;;;;21.38;9.88;;;16.70;74.70;;;;;;5023050;28;20026;-74
2022/10/03 09:56:13;;;;;;;26.42;11.50;;;16.70;74.60;;;;;;5024317;28;20041;-73
2022/10/03 09:59:10;;;;;;;20.60;10.68;;;16.80;74.10;;;;;;5030143;28;20460;-73
2022/10/03 10:02:14;;;;;;;19.13;10.82;;;16.80;73.90;;;;;;5030638;28;20484;-73
2022/10/03 10:05:10;;;;;;;19.30;9.93;;;16.80;73.90;;;;;;5006993;28;20038;-73
2022/10/03 10:07:59;;;;;;;25.20;10.77;;;16.90;73.90;;;;;;5002831;28;20044;-74
2022/10/03 10:10:43;;;;;;;22.60;11.57;;;17.10;74.20;;;;;;5025532;28;20184;-73
2022/10/03 10:13:18;;;;;;;22.83;11.85;;;17.10;72.70;;;;;;5027315;28;20091;-73
2022/10/03 10:16:12;;;;;;;22.10;11.38;;;17.30;72.80;;;;;;5025203;28;20167;-74
2022/10/03 10:19:33;;;;;;;24.38;11.75;;;17.50;72.40;;;;;;5022186;28;20049;-73
2022/10/03 10:22:03;;;;;;;25.60;11.55;;;17.60;72.60;;;;;;4966808;28;20080;-73
2022/10/03 10:25:04;;;;;;;23.33;11.20;;;17.70;71.80;;;;;;5025214;28;20057;-72
2022/10/03 10:28:07;;;;;;;22.90;10.60;;;17.60;71.10;;;;;;5030115;28;20431;-73
2022/10/03 10:30:54;;;;;;;17.88;8.30;;;17.60;71.40;;;;;;5026138;28;20424;-75
2022/10/03 10:34:12;;;;;;;21.25;9.10;;;17.50;71.20;;;;;;5010140;28;20118;-74
2022/10/03 10:36:56;;;;;;;20.17;8.90;;;17.60;72.20;;;;;;5025390;28;20853;-73
2022/10/03 10:39:27;;;;;;;23.48;9.40;;;17.50;71.30;;;;;;5021589;28;20043;-73
2022/10/03 10:42:05;;;;;;;19.35;9.07;;;17.50;71.80;;;;;;5028029;28;20041;-73
2022/10/03 10:45:03;;;;;;;17.77;6.90;;;17.50;71.80;;;;;;5023673;28;20041;-72
2022/10/03 10:47:50;;;;;;;21.88;6.78;;;17.40;70.90;;;;;;5027916;28;20041;-74
2022/10/03 10:51:10;;;;;;;20.00;6.90;;;17.40;71.10;;;;;;5026593;28;20484;-74
2022/10/03 10:53:54;;;;;;;16.88;6.55;;;17.60;70.10;;;;;;4976790;28;20105;-74
2022/10/03 10:56:44;;;;;;;21.65;7.70;;;17.80;69.90;;;;;;5020029;28;20084;-74
2022/10/03 10:59:34;;;;;;;19.70;7.43;;;17.80;70.20;;;;;;5029660;28;20032;-74
2022/10/03 11:02:31;;;;;;;19.00;7.85;;;17.90;69.80;;;;;;5027749;28;20441;-74
2022/10/03 11:05:45;;;;;;;19.77;6.43;;;17.90;69.40;;;;;;5022121;28;20029;-74
2022/10/03 11:08:50;;;;;;;16.63;6.07;;;18.10;68.10;;;;;;4999632;28;20487;-72
2022/10/03 11:11:22;;;;;;;19.60;7.93;;;18.20;68.30;;;;;;5024246;28;20060;-73
2022/10/03 11:13:56;;;;;;;19.73;7.07;;;18.30;68.00;;;;;;5026480;28;20354;-73
2022/10/03 11:16:55;;;;;;;20.45;7.95;;;18.30;69.10;;;;;;5018818;28;20041;-73
2022/10/03 11:19:25;;;;;;;17.02;7.57;;;18.40;67.90;;;;;;5018191;28;20050;-75
2022/10/03 11:22:25;;;;;;;18.42;7.57;;;18.50;67.30;;;;;;5026152;28;20609;-74
2022/10/03 11:25:28;;;;;;;18.58;6.25;;;18.60;66.80;;;;;;5015580;28;20041;-74
2022/10/03 11:28:31;;;;;;;19.73;5.95;;;18.70;65.80;;;;;;5023913;28;20029;-74
2022/10/03 11:31:03;;;;;;;14.13;5.80;;;18.60;65.90;;;;;;5018738;28;20033;-74
2022/10/03 11:33:54;;;;;;;14.57;4.97;;;18.40;66.50;;;;;;5020516;28;20041;-74
2022/10/03 11:36:59;;;;;;;17.92;6.00;;;18.60;65.20;;;;;;5017182;28;20082;-76
2022/10/03 11:39:36;;;;;;;;;;;18.60;65.30;;;;;;5016488;28;20025;-74
2022/10/03 11:42:27;;;;;;;18.80;4.50;;;18.50;65.60;;;;;;5026597;28;19924;-74
2022/10/03 11:44:59;;;;;;;11.82;3.65;;;18.80;66.20;;;;;;5018438;28;20120;-75
2022/10/03 11:47:40;;;;;;;12.63;3.75;;;19.10;65.10;;;;;;5018368;28;20029;-73
2022/10/03 11:50:47;;;;;;;13.10;4.43;;;19.10;62.50;;;;;;5019311;28;20037;-74
2022/10/03 11:53:37;;;;;;;11.25;3.53;;;18.90;62.20;;;;;;5016409;28;20528;-73
2022/10/03 11:56:17;;;;;;;12.35;4.00;;;19.00;62.90;;;;;;5015282;28;20108;-75
2022/10/03 11:58:46;;;;;;;12.32;3.40;;;19.10;61.90;;;;;;5019142;28;20087;-73
2022/10/03 12:01:33;;;;;;;13.07;3.85;;;19.10;60.90;;;;;;5022935;28;20027;-74
2022/10/03 12:04:29;;;;;;;16.83;4.53;;;19.10;61.70;;;;;;5000583;28;20445;-75
2022/10/03 12:10:07;;;;;;;12.52;3.30;;;19.10;61.20;;;;;;5023256;28;20048;-74
2022/10/03 12:12:42;;;;;;;11.52;3.67;;;19.30;62.00;;;;;;5015403;28;20045;-74
2022/10/03 12:15:33;;;;;;;14.43;3.75;;;19.10;60.50;;;;;;5017254;28;20033;-73
2022/10/03 12:18:19;;;;;;;15.00;3.65;;;19.10;60.30;;;;;;5019577;28;20060;-73
2022/10/03 12:21:15;;;;;;;10.68;3.80;;;19.10;61.90;;;;;;5022294;28;20040;-73
2022/10/03 12:24:19;;;;;;;10.70;4.00;;;19.50;60.70;;;;;;5019781;28;20052;-74
2022/10/03 12:26:52;;;;;;;13.43;3.75;;;19.60;60.50;;;;;;5001617;28;20080;-72
2022/10/03 12:29:21;;;;;;;10.75;3.70;;;19.80;60.30;;;;;;5012312;28;20491;-73
2022/10/03 12:32:09;;;;;;;10.00;3.50;;;19.90;59.50;;;;;;5018949;28;20080;-73
2022/10/03 12:34:48;;;;;;;12.68;4.28;;;19.90;59.40;;;;;;5022351;28;20073;-73
2022/10/03 12:37:31;;;;;;;9.43;3.78;;;19.80;61.50;;;;;;5012695;28;20034;-73
2022/10/03 12:40:17;;;;;;;11.55;3.30;;;19.90;60.40;;;;;;5011063;28;20083;-73
2022/10/03 12:42:52;;;;;;;12.80;3.60;;;19.80;59.60;;;;;;4999814;28;20025;-71
2022/10/03 12:45:42;;;;;;;12.90;3.80;;;19.90;59.30;;;;;;5017649;28;20043;-73
2022/10/03 12:48:43;;;;;;;13.57;4.13;;;20.00;58.70;;;;;;5021011;28;20045;-74
2022/10/03 12:51:11;;;;;;;12.40;3.50;;;20.10;58.70;;;;;;5007789;28;20145;-76
2022/10/03 12:53:59;;;;;;;12.60;3.78;;;20.10;58.40;;;;;;5017603;28;20044;-73
2022/10/03 12:56:44;;;;;;;10.98;3.53;;;20.00;57.30;;;;;;5021704;28;20123;-72
2022/10/03 12:59:30;;;;;;;12.90;3.70;;;19.80;58.80;;;;;;5020555;28;20048;-74
2022/10/03 13:01:56;;;;;;;11.50;3.30;;;19.60;59.80;;;;;;5021383;28;20487;-73
2022/10/03 13:04:30;;;;;;;11.98;3.38;;;19.70;58.50;;;;;;5028265;28;20037;-73
2022/10/03 13:07:15;;;;;;;13.77;4.22;;;19.80;58.80;;;;;;5032476;28;20042;-74
2022/10/03 13:09:59;;;;;;;10.05;3.60;;;19.80;59.80;;;;;;5028816;28;20485;-73
2022/10/03 13:12:43;;;;;;;14.18;3.92;;;19.90;58.50;;;;;;5032305;28;20033;-73
2022/10/03 13:15:36;;;;;;;12.02;3.13;;;20.00;57.40;;;;;;5026279;28;20229;-73
2022/10/03 13:18:31;;;;;;;12.35;3.65;;;20.10;57.80;;;;;;5022761;28;20045;-73
2022/10/03 13:21:25;;;;;;;13.70;3.78;;;20.10;57.40;;;;;;5024413;28;20040;-73
2022/10/03 13:23:57;;;;;;;11.88;3.97;;;20.20;57.90;;;;;;5030647;28;20429;-74
2022/10/03 13:26:42;;;;;;;13.05;3.88;;;20.10;57.70;;;;;;5034154;28;20034;-75
2022/10/03 13:29:18;;;;;;;10.90;4.30;;;19.70;57.60;;;;;;5019078;28;20091;-74
2022/10/03 13:31:54;;;;;;;11.68;4.15;;;19.60;58.10;;;;;;5007541;28;20025;-73
2022/10/03 13:34:27;;;;;;;13.75;4.20;;;19.50;57.80;;;;;;5017418;28;20041;-74
2022/10/03 13:37:13;;;;;;;14.48;5.40;;;19.40;58.30;;;;;;5013961;28;20049;-74
2022/10/03 13:39:49;;;;;;;14.73;5.75;;;19.40;59.60;;;;;;5008529;28;20461;-73
2022/10/03 13:42:41;;;;;;;14.35;5.70;;;19.30;58.90;;;;;;5017913;28;20038;-74
2022/10/03 13:45:18;;;;;;;15.88;5.05;;;19.30;59.40;;;;;;5016356;28;20036;-74
2022/10/03 13:48:14;;;;;;;16.67;5.53;;;19.20;57.20;;;;;;5016158;28;20034;-74
2022/10/03 13:51:01;;;;;;;12.98;5.20;;;19.00;58.00;;;;;;5023045;28;20510;-74
2022/10/03 13:53:48;;;;;;;13.55;5.35;;;19.10;58.50;;;;;;5017949;28;20060;-75
2022/10/03 13:56:40;;;;;;;15.50;5.32;;;19.30;58.60;;;;;;5020641;28;20060;-73
2022/10/03 13:59:23;;;;;;;13.60;5.25;;;19.40;59.80;;;;;;5027364;28;20021;-74
2022/10/03 14:02:16;;;;;;;13.00;5.03;;;19.50;59.80;;;;;;5024345;28;20040;-72
2022/10/03 14:04:58;;;;;;;11.15;3.80;;;19.50;58.60;;;;;;5020571;28;20045;-74
2022/10/03 14:07:54;;;;;;;12.13;4.22;;;19.50;58.60;;;;;;5017871;28;20436;-73
2022/10/03 14:10:48;;;;;;;12.07;4.25;;;19.50;60.30;;;;;;5020560;28;20483;-74
2022/10/03 14:13:32;;;;;;;11.93;3.63;;;19.30;59.90;;;;;;5020657;28;20033;-74
2022/10/03 14:16:21;;;;;;;12.85;3.10;;;19.20;60.50;;;;;;5027360;28;20140;-72
2022/10/03 14:18:58;;;;;;;12.23;3.78;;;19.30;61.10;;;;;;5021298;28;20033;-73
2022/10/03 14:22:09;;;;;;;9.80;2.58;;;19.40;61.40;;;;;;5019317;28;20465;-73
2022/10/03 14:24:46;;;;;;;8.63;2.90;;;19.20;58.40;;;;;;5020410;28;20275;-72
2022/10/03 14:27:17;;;;;;;7.97;2.55;;;19.10;59.10;;;;;;5019383;28;20057;-73
2022/10/03 14:30:15;;;;;;;10.05;2.60;;;19.00;58.30;;;;;;5021215;28;20030;-73
2022/10/03 14:32:47;;;;;;;8.77;2.95;;;19.00;58.90;;;;;;5018764;28;20040;-72